createdAt,value
2023-04-27T00:00:16.003Z,19.2
2023-04-27T00:10:16.174Z,19.4
2023-04-27T00:20:15.562Z,18.9
2023-04-27T00:30:15.506Z,19
2023-04-27T00:40:15.651Z,18.9
2023-04-27T00:50:15.796Z,18.9
2023-04-27T01:00:16.042Z,18.9
2023-04-27T01:10:16.176Z,18.8
2023-04-27T01:20:15.931Z,18.8
2023-04-27T01:30:16.805Z,18.8
2023-04-27T01:40:16.899Z,18.8
2023-04-27T01:50:16.684Z,19.1
2023-04-27T02:00:16.596Z,18.6
2023-04-27T02:10:17.009Z,18.5
2023-04-27T02:20:17.187Z,18.6
2023-04-27T02:30:17.618Z,18.5
2023-04-27T02:40:17.798Z,18.4
2023-04-27T02:50:17.952Z,18.4
2023-04-27T03:10:08.411Z,18.8
2023-04-27T03:20:09.157Z,18.3
2023-04-27T03:30:09.364Z,18.4
2023-04-27T03:40:09.208Z,18.4
2023-04-27T03:50:09.152Z,18.4
2023-04-27T04:00:10.711Z,18.6
2023-04-27T04:10:10.944Z,18.4
2023-04-27T04:20:12.248Z,18.4
2023-04-27T04:30:14.703Z,18.4
2023-04-27T04:40:19.895Z,18.9
2023-04-27T04:50:29.654Z,19.8
2023-04-27T05:00:43.607Z,18.8
2023-04-27T05:10:52.088Z,19.1
2023-04-27T05:20:58.073Z,18.6
2023-04-27T05:31:01.523Z,18.6
2023-04-27T05:41:02.930Z,18.8
2023-04-27T05:51:04.876Z,19.1
2023-04-27T06:01:05.402Z,18.8
2023-04-27T06:11:06.685Z,18.9
2023-04-27T06:21:12.030Z,18.9
2023-04-27T06:31:20.492Z,19.1
2023-04-27T06:41:35.135Z,19.8
2023-04-27T06:51:48.485Z,19.1
2023-04-27T07:02:02.377Z,18.8
2023-04-27T07:12:16.867Z,19.2
2023-04-27T07:22:33.400Z,19.1
2023-04-27T07:32:49.199Z,19.4
2023-04-27T07:43:05.127Z,19.6
2023-04-27T07:53:22.033Z,19.7
2023-04-27T08:03:39.101Z,18.2
2023-04-27T08:13:56.427Z,20.4
2023-04-27T08:24:11.834Z,20.3
2023-04-27T08:34:28.179Z,20.6
2023-04-27T08:44:44.474Z,20.3
2023-04-27T08:54:56.673Z,20.6
2023-04-27T09:10:19.516Z,21.3
2023-04-27T09:20:32.147Z,20.9
2023-04-27T09:30:45.553Z,20.8
2023-04-27T09:40:58.292Z,20.9
2023-04-27T09:51:11.069Z,21
2023-04-27T10:01:24.123Z,21.1
2023-04-27T10:11:39.137Z,21.3
2023-04-27T10:21:58.427Z,21.3
2023-04-27T10:32:18.454Z,21.2
2023-04-27T10:42:36.372Z,21.3
2023-04-27T10:52:50.894Z,21.5
2023-04-27T11:03:01.579Z,21.7
2023-04-27T11:13:10.738Z,21.3
2023-04-27T11:23:18.288Z,21.2
2023-04-27T11:33:31.319Z,21
2023-04-27T11:43:42.103Z,21.6
2023-04-27T11:53:52.689Z,21.3
2023-04-27T12:04:05.973Z,20.8
2023-04-27T12:14:16.142Z,21.8
2023-04-27T12:24:25.628Z,23.1
2023-04-27T12:34:32.588Z,21.4
2023-04-27T12:44:38.321Z,21.4
2023-04-27T12:54:42.630Z,21.4
2023-04-27T13:04:48.783Z,21.4
2023-04-27T13:14:54.720Z,21.3
2023-04-27T13:24:59.004Z,21.3
2023-04-27T13:35:02.954Z,20.8
2023-04-27T13:45:05.496Z,21.1
2023-04-27T13:55:05.019Z,20.8
2023-04-27T14:05:08.468Z,21
2023-04-27T14:15:12.964Z,21.3
2023-04-27T14:25:15.921Z,20.9
2023-04-27T14:35:20.765Z,21.1
2023-04-27T14:45:24.837Z,21
2023-04-27T14:55:29.236Z,21
2023-04-27T15:10:11.311Z,21
2023-04-27T15:20:15.396Z,20.8
2023-04-27T15:30:19.306Z,21
2023-04-27T15:40:23.445Z,21.1
2023-04-27T15:50:27.068Z,20.9
2023-04-27T16:00:31.202Z,20.7
2023-04-27T16:10:34.759Z,20.4
2023-04-27T16:20:38.491Z,20.6
2023-04-27T16:30:43.787Z,20.6
2023-04-27T16:40:48.740Z,20.7
2023-04-27T16:50:55.334Z,20.4
2023-04-27T17:00:58.038Z,20.5
2023-04-27T17:11:01.464Z,20.4
2023-04-27T17:21:05.349Z,20.4
2023-04-27T17:31:08.856Z,20.4
2023-04-27T17:41:12.555Z,20.4
2023-04-27T17:51:16.147Z,20.3
2023-04-27T18:01:20.058Z,20.3
2023-04-27T18:11:23.514Z,20.3
2023-04-27T18:21:27.130Z,20.2
2023-04-27T18:31:30.794Z,20.1
2023-04-27T18:41:34.595Z,20.1
2023-04-27T18:51:38.173Z,19.8
2023-04-27T19:01:41.944Z,20.1
2023-04-27T19:11:46.804Z,19.9
2023-04-27T19:21:49.202Z,19.8
2023-04-27T19:31:53.614Z,19.8
2023-04-27T19:41:56.573Z,19.8
2023-04-27T19:52:00.261Z,19.9
2023-04-27T20:02:04.065Z,19.7
2023-04-27T20:12:08.164Z,19.7
2023-04-27T20:22:11.388Z,19.4
2023-04-27T20:32:15.120Z,19.5
2023-04-27T20:42:18.881Z,19.6
2023-04-27T20:52:22.647Z,19.3
2023-04-27T21:10:11.341Z,19.5
2023-04-27T21:20:15.397Z,19.3
2023-04-27T21:30:18.911Z,19.4
2023-04-27T21:40:22.388Z,19.5
2023-04-27T21:50:26.036Z,19.5
2023-04-27T22:00:29.789Z,19.2
2023-04-27T22:10:34.686Z,19.3
2023-04-27T22:20:39.492Z,19.2
2023-04-27T22:30:44.532Z,19.1
2023-04-27T22:40:49.297Z,19.1
2023-04-27T22:50:54.256Z,19.1
2023-04-27T23:00:58.501Z,19
2023-04-27T23:11:02.060Z,18.8
2023-04-27T23:21:05.505Z,18.9
2023-04-27T23:31:09.161Z,18.9
2023-04-27T23:41:12.664Z,18.6
2023-04-27T23:51:16.209Z,18.8
